sensor_id;sensor_type;location;lat;lon;timestamp;P1;durP1;ratioP1;P2;durP2;ratioP2
4268;SDS011;2148;48.554;7.834;2022-11-14T00:01:53;12.33;;;10.00;;
4268;SDS011;2148;48.554;7.834;2022-11-14T00:04:19;11.00;;;9.90;;
4268;SDS011;2148;48.554;7.834;2022-11-14T00:06:44;9.60;;;8.70;;
4268;SDS011;2148;48.554;7.834;2022-11-14T00:09:09;11.07;;;9.83;;
4268;SDS011;2148;48.554;7.834;2022-11-14T00:11:34;10.97;;;9.80;;
4268;SDS011;2148;48.554;7.834;2022-11-14T00:14:00;9.63;;;8.63;;
4268;SDS011;2148;48.554;7.834;2022-11-14T00:16:25;9.37;;;8.37;;
4268;SDS011;2148;48.554;7.834;2022-11-14T00:18:51;10.90;;;9.53;;
4268;SDS011;2148;48.554;7.834;2022-11-14T00:21:17;12.30;;;10.20;;
4268;SDS011;2148;48.554;7.834;2022-11-14T00:23:42;11.57;;;9.37;;
4268;SDS011;2148;48.554;7.834;2022-11-14T00:26:07;10.43;;;9.37;;
4268;SDS011;2148;48.554;7.834;2022-11-14T00:28:32;11.47;;;9.87;;
4268;SDS011;2148;48.554;7.834;2022-11-14T00:30:58;10.17;;;9.03;;
4268;SDS011;2148;48.554;7.834;2022-11-14T00:33:23;11.17;;;9.47;;
4268;SDS011;2148;48.554;7.834;2022-11-14T00:35:49;11.03;;;9.93;;
4268;SDS011;2148;48.554;7.834;2022-11-14T00:38:15;10.57;;;9.50;;
4268;SDS011;2148;48.554;7.834;2022-11-14T00:40:40;11.83;;;9.77;;
4268;SDS011;2148;48.554;7.834;2022-11-14T00:43:06;12.87;;;10.07;;
4268;SDS011;2148;48.554;7.834;2022-11-14T00:45:31;10.67;;;9.57;;
4268;SDS011;2148;48.554;7.834;2022-11-14T00:47:56;10.53;;;9.43;;
4268;SDS011;2148;48.554;7.834;2022-11-14T00:50:21;10.77;;;9.40;;
4268;SDS011;2148;48.554;7.834;2022-11-14T00:52:46;10.37;;;9.33;;
4268;SDS011;2148;48.554;7.834;2022-11-14T00:55:12;11.50;;;10.30;;
4268;SDS011;2148;48.554;7.834;2022-11-14T00:57:37;13.43;;;10.77;;
4268;SDS011;2148;48.554;7.834;2022-11-14T01:00:03;14.07;;;10.30;;
4268;SDS011;2148;48.554;7.834;2022-11-14T01:02:29;11.57;;;10.07;;
4268;SDS011;2148;48.554;7.834;2022-11-14T01:04:54;11.20;;;10.07;;
4268;SDS011;2148;48.554;7.834;2022-11-14T01:07:20;10.93;;;9.73;;
4268;SDS011;2148;48.554;7.834;2022-11-14T01:09:45;11.00;;;9.90;;
4268;SDS011;2148;48.554;7.834;2022-11-14T01:12:10;11.83;;;10.13;;
4268;SDS011;2148;48.554;7.834;2022-11-14T01:14:35;11.43;;;10.17;;
4268;SDS011;2148;48.554;7.834;2022-11-14T01:17:01;11.97;;;10.57;;
4268;SDS011;2148;48.554;7.834;2022-11-14T01:19:26;11.97;;;9.70;;
4268;SDS011;2148;48.554;7.834;2022-11-14T01:21:51;11.87;;;10.20;;
4268;SDS011;2148;48.554;7.834;2022-11-14T01:24:16;11.80;;;10.53;;
4268;SDS011;2148;48.554;7.834;2022-11-14T01:26:41;12.03;;;10.73;;
4268;SDS011;2148;48.554;7.834;2022-11-14T01:29:07;12.30;;;11.00;;
4268;SDS011;2148;48.554;7.834;2022-11-14T01:31:32;12.57;;;11.27;;
4268;SDS011;2148;48.554;7.834;2022-11-14T01:33:57;13.07;;;10.23;;
4268;SDS011;2148;48.554;7.834;2022-11-14T01:36:22;11.67;;;10.47;;
4268;SDS011;2148;48.554;7.834;2022-11-14T01:38:51;11.07;;;9.90;;
4268;SDS011;2148;48.554;7.834;2022-11-14T01:41:17;12.80;;;11.30;;
4268;SDS011;2148;48.554;7.834;2022-11-14T01:43:42;11.63;;;10.43;;
4268;SDS011;2148;48.554;7.834;2022-11-14T01:46:16;13.10;;;10.53;;
4268;SDS011;2148;48.554;7.834;2022-11-14T01:51:28;9.87;;;8.50;;
4268;SDS011;2148;48.554;7.834;2022-11-14T01:53:58;11.23;;;9.10;;
4268;SDS011;2148;48.554;7.834;2022-11-14T01:56:30;10.60;;;9.50;;
4268;SDS011;2148;48.554;7.834;2022-11-14T01:59:02;10.30;;;9.30;;
4268;SDS011;2148;48.554;7.834;2022-11-14T02:01:31;11.30;;;9.53;;
4268;SDS011;2148;48.554;7.834;2022-11-14T02:03:59;11.40;;;8.93;;
4268;SDS011;2148;48.554;7.834;2022-11-14T02:06:25;10.60;;;9.50;;
4268;SDS011;2148;48.554;7.834;2022-11-14T02:08:53;11.10;;;9.90;;
4268;SDS011;2148;48.554;7.834;2022-11-14T02:11:18;9.90;;;8.87;;
4268;SDS011;2148;48.554;7.834;2022-11-14T02:13:43;10.90;;;9.47;;
4268;SDS011;2148;48.554;7.834;2022-11-14T02:16:09;10.47;;;9.40;;
4268;SDS011;2148;48.554;7.834;2022-11-14T02:18:34;12.80;;;9.57;;
4268;SDS011;2148;48.554;7.834;2022-11-14T02:20:59;10.63;;;9.53;;
4268;SDS011;2148;48.554;7.834;2022-11-14T02:23:26;11.57;;;10.17;;
4268;SDS011;2148;48.554;7.834;2022-11-14T02:25:52;11.23;;;9.63;;
4268;SDS011;2148;48.554;7.834;2022-11-14T02:28:17;11.20;;;9.60;;
4268;SDS011;2148;48.554;7.834;2022-11-14T02:30:44;12.07;;;10.53;;
4268;SDS011;2148;48.554;7.834;2022-11-14T02:33:10;13.13;;;9.93;;
4268;SDS011;2148;48.554;7.834;2022-11-14T02:35:35;12.80;;;9.97;;
4268;SDS011;2148;48.554;7.834;2022-11-14T02:38:00;11.20;;;9.80;;
4268;SDS011;2148;48.554;7.834;2022-11-14T02:40:25;12.77;;;9.77;;
4268;SDS011;2148;48.554;7.834;2022-11-14T02:42:51;12.50;;;11.10;;
4268;SDS011;2148;48.554;7.834;2022-11-14T02:45:16;11.77;;;10.63;;
4268;SDS011;2148;48.554;7.834;2022-11-14T02:47:41;12.67;;;9.57;;
4268;SDS011;2148;48.554;7.834;2022-11-14T02:50:07;11.63;;;9.80;;
4268;SDS011;2148;48.554;7.834;2022-11-14T02:52:32;13.30;;;10.40;;
4268;SDS011;2148;48.554;7.834;2022-11-14T02:54:57;10.93;;;9.00;;
4268;SDS011;2148;48.554;7.834;2022-11-14T02:57:23;11.43;;;9.83;;
4268;SDS011;2148;48.554;7.834;2022-11-14T02:59:48;11.03;;;9.57;;
4268;SDS011;2148;48.554;7.834;2022-11-14T03:02:13;12.20;;;10.57;;
4268;SDS011;2148;48.554;7.834;2022-11-14T03:04:38;10.20;;;9.03;;
4268;SDS011;2148;48.554;7.834;2022-11-14T03:07:04;12.93;;;11.17;;
4268;SDS011;2148;48.554;7.834;2022-11-14T03:09:29;13.00;;;10.57;;
4268;SDS011;2148;48.554;7.834;2022-11-14T03:11:54;12.53;;;10.40;;
4268;SDS011;2148;48.554;7.834;2022-11-14T03:14:19;14.63;;;11.37;;
4268;SDS011;2148;48.554;7.834;2022-11-14T03:16:45;10.80;;;9.13;;
4268;SDS011;2148;48.554;7.834;2022-11-14T03:19:10;12.20;;;9.80;;
4268;SDS011;2148;48.554;7.834;2022-11-14T03:21:35;13.97;;;11.80;;
4268;SDS011;2148;48.554;7.834;2022-11-14T03:24:00;13.20;;;11.03;;
4268;SDS011;2148;48.554;7.834;2022-11-14T03:26:26;13.07;;;11.30;;
4268;SDS011;2148;48.554;7.834;2022-11-14T03:28:51;13.30;;;11.93;;
4268;SDS011;2148;48.554;7.834;2022-11-14T03:31:18;12.73;;;10.80;;
4268;SDS011;2148;48.554;7.834;2022-11-14T03:33:44;13.63;;;11.70;;
4268;SDS011;2148;48.554;7.834;2022-11-14T03:36:09;13.83;;;10.93;;
4268;SDS011;2148;48.554;7.834;2022-11-14T03:38:35;11.93;;;10.27;;
4268;SDS011;2148;48.554;7.834;2022-11-14T03:41:00;13.30;;;10.87;;
4268;SDS011;2148;48.554;7.834;2022-11-14T03:43:28;13.13;;;10.80;;
4268;SDS011;2148;48.554;7.834;2022-11-14T03:45:56;12.17;;;10.33;;
4268;SDS011;2148;48.554;7.834;2022-11-14T03:48:22;12.63;;;10.67;;
4268;SDS011;2148;48.554;7.834;2022-11-14T03:50:48;12.73;;;10.57;;
4268;SDS011;2148;48.554;7.834;2022-11-14T03:53:13;14.37;;;10.87;;
4268;SDS011;2148;48.554;7.834;2022-11-14T03:55:39;13.63;;;11.17;;
4268;SDS011;2148;48.554;7.834;2022-11-14T03:58:04;13.10;;;10.83;;
4268;SDS011;2148;48.554;7.834;2022-11-14T04:00:29;14.50;;;11.87;;
4268;SDS011;2148;48.554;7.834;2022-11-14T04:02:55;12.37;;;10.53;;
4268;SDS011;2148;48.554;7.834;2022-11-14T04:05:21;13.73;;;11.60;;
4268;SDS011;2148;48.554;7.834;2022-11-14T04:07:47;14.67;;;11.03;;
4268;SDS011;2148;48.554;7.834;2022-11-14T04:10:12;14.57;;;12.10;;
4268;SDS011;2148;48.554;7.834;2022-11-14T04:12:37;15.63;;;11.97;;
4268;SDS011;2148;48.554;7.834;2022-11-14T04:15:03;15.17;;;12.17;;
4268;SDS011;2148;48.554;7.834;2022-11-14T04:17:29;13.43;;;11.70;;
4268;SDS011;2148;48.554;7.834;2022-11-14T04:19:54;14.17;;;11.50;;
4268;SDS011;2148;48.554;7.834;2022-11-14T04:22:19;14.37;;;11.27;;
4268;SDS011;2148;48.554;7.834;2022-11-14T04:24:44;13.60;;;11.93;;
4268;SDS011;2148;48.554;7.834;2022-11-14T04:27:10;14.83;;;12.63;;
4268;SDS011;2148;48.554;7.834;2022-11-14T04:29:35;15.27;;;12.30;;
4268;SDS011;2148;48.554;7.834;2022-11-14T04:32:00;13.63;;;11.33;;
4268;SDS011;2148;48.554;7.834;2022-11-14T04:34:25;14.33;;;11.50;;
4268;SDS011;2148;48.554;7.834;2022-11-14T04:36:51;14.40;;;11.63;;
4268;SDS011;2148;48.554;7.834;2022-11-14T04:39:16;15.43;;;12.50;;
4268;SDS011;2148;48.554;7.834;2022-11-14T04:41:42;15.27;;;12.00;;
4268;SDS011;2148;48.554;7.834;2022-11-14T04:44:07;16.87;;;12.13;;
4268;SDS011;2148;48.554;7.834;2022-11-14T04:46:32;15.37;;;12.57;;
4268;SDS011;2148;48.554;7.834;2022-11-14T04:48:57;15.73;;;12.57;;
4268;SDS011;2148;48.554;7.834;2022-11-14T04:51:23;15.73;;;12.17;;
4268;SDS011;2148;48.554;7.834;2022-11-14T04:53:48;12.63;;;10.90;;
4268;SDS011;2148;48.554;7.834;2022-11-14T04:56:13;15.47;;;11.83;;
4268;SDS011;2148;48.554;7.834;2022-11-14T04:58:39;16.83;;;12.27;;
4268;SDS011;2148;48.554;7.834;2022-11-14T05:01:10;13.90;;;11.90;;
4268;SDS011;2148;48.554;7.834;2022-11-14T05:03:35;14.60;;;11.00;;
4268;SDS011;2148;48.554;7.834;2022-11-14T05:06:01;14.90;;;12.23;;
4268;SDS011;2148;48.554;7.834;2022-11-14T05:08:27;15.80;;;12.17;;
4268;SDS011;2148;48.554;7.834;2022-11-14T05:10:52;13.80;;;11.73;;
4268;SDS011;2148;48.554;7.834;2022-11-14T05:13:17;17.77;;;12.57;;
4268;SDS011;2148;48.554;7.834;2022-11-14T05:15:43;16.77;;;11.93;;
4268;SDS011;2148;48.554;7.834;2022-11-14T05:18:08;14.93;;;12.03;;
4268;SDS011;2148;48.554;7.834;2022-11-14T05:20:33;13.70;;;11.23;;
4268;SDS011;2148;48.554;7.834;2022-11-14T05:22:58;14.43;;;11.20;;
4268;SDS011;2148;48.554;7.834;2022-11-14T05:25:23;15.37;;;11.67;;
4268;SDS011;2148;48.554;7.834;2022-11-14T05:27:49;14.03;;;11.47;;
4268;SDS011;2148;48.554;7.834;2022-11-14T05:30:14;14.30;;;11.23;;
4268;SDS011;2148;48.554;7.834;2022-11-14T05:32:40;14.67;;;11.23;;
4268;SDS011;2148;48.554;7.834;2022-11-14T05:35:05;13.03;;;11.13;;
4268;SDS011;2148;48.554;7.834;2022-11-14T05:37:32;13.40;;;11.23;;
4268;SDS011;2148;48.554;7.834;2022-11-14T05:39:58;13.83;;;11.20;;
4268;SDS011;2148;48.554;7.834;2022-11-14T05:42:23;15.73;;;11.30;;
4268;SDS011;2148;48.554;7.834;2022-11-14T05:44:48;13.27;;;11.77;;
4268;SDS011;2148;48.554;7.834;2022-11-14T05:47:14;13.20;;;11.07;;
4268;SDS011;2148;48.554;7.834;2022-11-14T05:49:39;15.97;;;11.47;;
4268;SDS011;2148;48.554;7.834;2022-11-14T05:52:04;12.67;;;10.80;;
4268;SDS011;2148;48.554;7.834;2022-11-14T05:54:29;13.73;;;11.07;;
4268;SDS011;2148;48.554;7.834;2022-11-14T05:56:55;13.97;;;11.23;;
4268;SDS011;2148;48.554;7.834;2022-11-14T05:59:20;13.50;;;11.13;;
4268;SDS011;2148;48.554;7.834;2022-11-14T06:01:45;14.30;;;11.53;;
4268;SDS011;2148;48.554;7.834;2022-11-14T06:04:12;14.33;;;11.43;;
4268;SDS011;2148;48.554;7.834;2022-11-14T06:06:37;14.50;;;11.53;;
4268;SDS011;2148;48.554;7.834;2022-11-14T06:09:03;14.33;;;11.93;;
4268;SDS011;2148;48.554;7.834;2022-11-14T06:11:28;17.47;;;11.00;;
4268;SDS011;2148;48.554;7.834;2022-11-14T06:13:53;14.23;;;11.17;;
4268;SDS011;2148;48.554;7.834;2022-11-14T06:16:19;15.60;;;12.23;;
4268;SDS011;2148;48.554;7.834;2022-11-14T06:18:44;13.20;;;11.20;;
4268;SDS011;2148;48.554;7.834;2022-11-14T06:21:17;14.07;;;11.57;;
4268;SDS011;2148;48.554;7.834;2022-11-14T06:23:43;14.20;;;11.30;;
4268;SDS011;2148;48.554;7.834;2022-11-14T06:26:22;12.80;;;10.83;;
4268;SDS011;2148;48.554;7.834;2022-11-14T06:28:49;15.63;;;12.20;;
4268;SDS011;2148;48.554;7.834;2022-11-14T06:31:16;12.60;;;10.37;;
4268;SDS011;2148;48.554;7.834;2022-11-14T06:33:41;13.90;;;11.10;;
4268;SDS011;2148;48.554;7.834;2022-11-14T06:36:07;13.40;;;10.80;;
4268;SDS011;2148;48.554;7.834;2022-11-14T06:38:34;15.83;;;11.10;;
4268;SDS011;2148;48.554;7.834;2022-11-14T06:41:08;15.43;;;11.07;;
4268;SDS011;2148;48.554;7.834;2022-11-14T06:43:34;12.93;;;10.80;;
4268;SDS011;2148;48.554;7.834;2022-11-14T06:46:02;14.43;;;10.90;;
4268;SDS011;2148;48.554;7.834;2022-11-14T06:48:28;15.80;;;11.63;;
4268;SDS011;2148;48.554;7.834;2022-11-14T06:50:54;15.97;;;12.57;;
4268;SDS011;2148;48.554;7.834;2022-11-14T06:53:20;15.80;;;11.37;;
4268;SDS011;2148;48.554;7.834;2022-11-14T06:55:59;14.00;;;11.13;;
4268;SDS011;2148;48.554;7.834;2022-11-14T06:58:26;14.87;;;11.87;;
4268;SDS011;2148;48.554;7.834;2022-11-14T07:00:53;14.27;;;11.33;;
4268;SDS011;2148;48.554;7.834;2022-11-14T07:03:19;13.13;;;10.33;;
4268;SDS011;2148;48.554;7.834;2022-11-14T07:05:45;12.60;;;10.10;;
4268;SDS011;2148;48.554;7.834;2022-11-14T07:08:10;13.50;;;9.83;;
4268;SDS011;2148;48.554;7.834;2022-11-14T07:10:35;14.13;;;10.37;;
4268;SDS011;2148;48.554;7.834;2022-11-14T07:13:00;13.50;;;10.03;;
4268;SDS011;2148;48.554;7.834;2022-11-14T07:15:26;12.10;;;9.37;;
4268;SDS011;2148;48.554;7.834;2022-11-14T07:17:51;12.83;;;10.03;;
4268;SDS011;2148;48.554;7.834;2022-11-14T07:20:16;10.93;;;9.17;;
4268;SDS011;2148;48.554;7.834;2022-11-14T07:22:45;11.47;;;9.07;;
4268;SDS011;2148;48.554;7.834;2022-11-14T07:25:11;11.93;;;9.23;;
4268;SDS011;2148;48.554;7.834;2022-11-14T07:27:36;12.67;;;9.57;;
4268;SDS011;2148;48.554;7.834;2022-11-14T07:30:01;9.60;;;8.47;;
4268;SDS011;2148;48.554;7.834;2022-11-14T07:32:27;10.50;;;8.00;;
4268;SDS011;2148;48.554;7.834;2022-11-14T07:34:52;8.30;;;7.50;;
4268;SDS011;2148;48.554;7.834;2022-11-14T07:37:17;10.03;;;8.07;;
4268;SDS011;2148;48.554;7.834;2022-11-14T07:39:43;8.73;;;7.50;;
4268;SDS011;2148;48.554;7.834;2022-11-14T07:42:09;8.27;;;7.23;;
4268;SDS011;2148;48.554;7.834;2022-11-14T07:44:35;10.03;;;8.07;;
4268;SDS011;2148;48.554;7.834;2022-11-14T07:47:00;9.40;;;8.37;;
4268;SDS011;2148;48.554;7.834;2022-11-14T07:49:25;10.70;;;8.70;;
4268;SDS011;2148;48.554;7.834;2022-11-14T07:51:50;10.10;;;9.03;;
4268;SDS011;2148;48.554;7.834;2022-11-14T07:54:16;11.00;;;8.80;;
4268;SDS011;2148;48.554;7.834;2022-11-14T07:56:41;12.50;;;9.20;;
4268;SDS011;2148;48.554;7.834;2022-11-14T07:59:06;10.90;;;8.40;;
4268;SDS011;2148;48.554;7.834;2022-11-14T08:01:31;11.70;;;8.70;;
4268;SDS011;2148;48.554;7.834;2022-11-14T08:03:57;10.07;;;8.93;;
4268;SDS011;2148;48.554;7.834;2022-11-14T08:06:22;10.70;;;8.57;;
4268;SDS011;2148;48.554;7.834;2022-11-14T08:08:47;10.90;;;9.53;;
4268;SDS011;2148;48.554;7.834;2022-11-14T08:11:12;11.20;;;9.13;;
4268;SDS011;2148;48.554;7.834;2022-11-14T08:13:38;9.90;;;8.77;;
4268;SDS011;2148;48.554;7.834;2022-11-14T08:16:07;11.83;;;9.80;;
4268;SDS011;2148;48.554;7.834;2022-11-14T08:18:34;10.60;;;9.23;;
4268;SDS011;2148;48.554;7.834;2022-11-14T08:21:02;9.60;;;8.60;;
4268;SDS011;2148;48.554;7.834;2022-11-14T08:23:28;9.33;;;8.33;;
4268;SDS011;2148;48.554;7.834;2022-11-14T08:25:53;11.57;;;8.90;;
4268;SDS011;2148;48.554;7.834;2022-11-14T08:28:18;9.13;;;7.87;;
4268;SDS011;2148;48.554;7.834;2022-11-14T08:30:43;10.27;;;9.03;;
4268;SDS011;2148;48.554;7.834;2022-11-14T08:33:09;10.90;;;8.90;;
4268;SDS011;2148;48.554;7.834;2022-11-14T08:35:34;12.20;;;8.97;;
4268;SDS011;2148;48.554;7.834;2022-11-14T08:38:00;11.17;;;8.93;;
4268;SDS011;2148;48.554;7.834;2022-11-14T08:40:26;9.43;;;8.10;;
4268;SDS011;2148;48.554;7.834;2022-11-14T08:42:54;11.63;;;8.87;;
4268;SDS011;2148;48.554;7.834;2022-11-14T08:45:22;10.60;;;8.60;;
4268;SDS011;2148;48.554;7.834;2022-11-14T08:47:51;9.07;;;8.13;;
4268;SDS011;2148;48.554;7.834;2022-11-14T08:50:16;9.23;;;8.03;;
4268;SDS011;2148;48.554;7.834;2022-11-14T08:52:42;10.50;;;8.63;;
4268;SDS011;2148;48.554;7.834;2022-11-14T08:55:07;10.47;;;8.53;;
4268;SDS011;2148;48.554;7.834;2022-11-14T08:57:32;8.47;;;7.60;;
4268;SDS011;2148;48.554;7.834;2022-11-14T08:59:57;10.67;;;7.83;;
4268;SDS011;2148;48.554;7.834;2022-11-14T09:02:23;8.13;;;7.03;;
4268;SDS011;2148;48.554;7.834;2022-11-14T09:04:48;7.40;;;6.50;;
4268;SDS011;2148;48.554;7.834;2022-11-14T09:07:13;8.20;;;7.00;;
4268;SDS011;2148;48.554;7.834;2022-11-14T09:09:38;9.10;;;6.83;;
4268;SDS011;2148;48.554;7.834;2022-11-14T09:12:04;8.33;;;6.47;;
4268;SDS011;2148;48.554;7.834;2022-11-14T09:14:29;6.17;;;5.43;;
4268;SDS011;2148;48.554;7.834;2022-11-14T09:16:54;7.60;;;6.90;;
4268;SDS011;2148;48.554;7.834;2022-11-14T09:19:20;6.93;;;6.20;;
4268;SDS011;2148;48.554;7.834;2022-11-14T09:21:45;7.27;;;6.17;;
4268;SDS011;2148;48.554;7.834;2022-11-14T09:24:10;11.13;;;8.27;;
4268;SDS011;2148;48.554;7.834;2022-11-14T09:26:35;13.87;;;9.43;;
4268;SDS011;2148;48.554;7.834;2022-11-14T09:29:02;7.80;;;7.00;;
4268;SDS011;2148;48.554;7.834;2022-11-14T09:31:28;8.53;;;6.17;;
4268;SDS011;2148;48.554;7.834;2022-11-14T09:33:53;8.17;;;6.67;;
4268;SDS011;2148;48.554;7.834;2022-11-14T09:36:19;9.77;;;6.70;;
4268;SDS011;2148;48.554;7.834;2022-11-14T09:38:45;9.60;;;6.97;;
4268;SDS011;2148;48.554;7.834;2022-11-14T09:41:21;8.93;;;7.13;;
4268;SDS011;2148;48.554;7.834;2022-11-14T09:46:22;9.43;;;7.90;;
4268;SDS011;2148;48.554;7.834;2022-11-14T09:48:50;10.43;;;8.73;;
4268;SDS011;2148;48.554;7.834;2022-11-14T09:51:29;7.43;;;6.70;;
4268;SDS011;2148;48.554;7.834;2022-11-14T09:56:40;7.57;;;6.70;;
4268;SDS011;2148;48.554;7.834;2022-11-14T09:59:12;7.20;;;6.50;;
4268;SDS011;2148;48.554;7.834;2022-11-14T10:01:47;7.47;;;6.77;;
4268;SDS011;2148;48.554;7.834;2022-11-14T10:04:30;9.90;;;7.50;;
4268;SDS011;2148;48.554;7.834;2022-11-14T10:07:48;11.67;;;7.33;;
4268;SDS011;2148;48.554;7.834;2022-11-14T10:13:09;8.63;;;7.37;;
4268;SDS011;2148;48.554;7.834;2022-11-14T10:18:37;9.33;;;8.17;;
4268;SDS011;2148;48.554;7.834;2022-11-14T10:29:34;9.40;;;8.23;;
4268;SDS011;2148;48.554;7.834;2022-11-14T10:32:35;11.77;;;8.83;;
4268;SDS011;2148;48.554;7.834;2022-11-14T10:37:33;9.73;;;8.73;;
4268;SDS011;2148;48.554;7.834;2022-11-14T10:40:13;9.57;;;8.57;;
4268;SDS011;2148;48.554;7.834;2022-11-14T10:42:41;9.93;;;8.87;;
4268;SDS011;2148;48.554;7.834;2022-11-14T10:47:35;10.60;;;9.50;;
4268;SDS011;2148;48.554;7.834;2022-11-14T10:50:13;10.27;;;8.53;;
4268;SDS011;2148;48.554;7.834;2022-11-14T10:52:40;13.20;;;9.60;;
4268;SDS011;2148;48.554;7.834;2022-11-14T10:55:15;9.70;;;8.57;;
4268;SDS011;2148;48.554;7.834;2022-11-14T10:57:44;11.27;;;9.50;;
4268;SDS011;2148;48.554;7.834;2022-11-14T11:00:16;12.37;;;9.87;;
4268;SDS011;2148;48.554;7.834;2022-11-14T11:02:53;10.33;;;9.23;;
4268;SDS011;2148;48.554;7.834;2022-11-14T11:05:21;10.87;;;9.60;;
4268;SDS011;2148;48.554;7.834;2022-11-14T11:07:49;10.97;;;9.37;;
4268;SDS011;2148;48.554;7.834;2022-11-14T11:10:34;11.93;;;10.70;;
4268;SDS011;2148;48.554;7.834;2022-11-14T11:13:32;12.63;;;9.67;;
4268;SDS011;2148;48.554;7.834;2022-11-14T11:15:59;13.07;;;10.17;;
4268;SDS011;2148;48.554;7.834;2022-11-14T11:18:28;10.27;;;9.23;;
4268;SDS011;2148;48.554;7.834;2022-11-14T11:21:01;11.10;;;9.87;;
4268;SDS011;2148;48.554;7.834;2022-11-14T11:23:27;12.63;;;10.43;;
4268;SDS011;2148;48.554;7.834;2022-11-14T11:26:00;11.40;;;10.20;;
4268;SDS011;2148;48.554;7.834;2022-11-14T11:28:32;12.50;;;9.57;;
4268;SDS011;2148;48.554;7.834;2022-11-14T11:36:01;11.47;;;10.30;;
4268;SDS011;2148;48.554;7.834;2022-11-14T11:38:41;11.17;;;8.87;;
4268;SDS011;2148;48.554;7.834;2022-11-14T11:41:18;15.57;;;11.03;;
4268;SDS011;2148;48.554;7.834;2022-11-14T11:43:48;11.33;;;10.10;;
4268;SDS011;2148;48.554;7.834;2022-11-14T11:46:29;12.07;;;10.73;;
4268;SDS011;2148;48.554;7.834;2022-11-14T11:49:01;12.27;;;10.30;;
4268;SDS011;2148;48.554;7.834;2022-11-14T11:51:27;12.30;;;10.97;;
4268;SDS011;2148;48.554;7.834;2022-11-14T11:53:57;13.40;;;10.63;;
4268;SDS011;2148;48.554;7.834;2022-11-14T11:56:29;13.43;;;10.63;;
4268;SDS011;2148;48.554;7.834;2022-11-14T12:01:44;11.87;;;10.67;;
4268;SDS011;2148;48.554;7.834;2022-11-14T12:04:10;12.97;;;11.37;;
4268;SDS011;2148;48.554;7.834;2022-11-14T12:06:40;11.63;;;9.60;;
4268;SDS011;2148;48.554;7.834;2022-11-14T12:09:11;12.93;;;10.10;;
4268;SDS011;2148;48.554;7.834;2022-11-14T12:11:41;11.67;;;10.47;;
4268;SDS011;2148;48.554;7.834;2022-11-14T12:27:58;13.30;;;11.60;;
4268;SDS011;2148;48.554;7.834;2022-11-14T12:30:39;13.17;;;10.57;;
4268;SDS011;2148;48.554;7.834;2022-11-14T12:33:21;12.47;;;10.87;;
4268;SDS011;2148;48.554;7.834;2022-11-14T12:35:52;13.20;;;11.10;;
4268;SDS011;2148;48.554;7.834;2022-11-14T12:38:22;10.20;;;9.13;;
4268;SDS011;2148;48.554;7.834;2022-11-14T12:40:51;12.00;;;10.70;;
4268;SDS011;2148;48.554;7.834;2022-11-14T12:43:40;15.33;;;12.30;;
4268;SDS011;2148;48.554;7.834;2022-11-14T12:46:07;21.23;;;16.70;;
4268;SDS011;2148;48.554;7.834;2022-11-14T12:48:37;13.30;;;11.33;;
4268;SDS011;2148;48.554;7.834;2022-11-14T12:51:05;14.53;;;11.07;;
4268;SDS011;2148;48.554;7.834;2022-11-14T12:53:54;14.43;;;10.07;;
4268;SDS011;2148;48.554;7.834;2022-11-14T13:01:46;11.23;;;10.03;;
4268;SDS011;2148;48.554;7.834;2022-11-14T13:12:41;13.70;;;9.33;;
4268;SDS011;2148;48.554;7.834;2022-11-14T13:15:31;8.93;;;7.83;;
4268;SDS011;2148;48.554;7.834;2022-11-14T13:18:25;9.63;;;8.00;;
4268;SDS011;2148;48.554;7.834;2022-11-14T13:24:02;10.03;;;8.03;;
4268;SDS011;2148;48.554;7.834;2022-11-14T13:28:53;9.00;;;7.60;;
4268;SDS011;2148;48.554;7.834;2022-11-14T13:31:18;43.70;;;25.30;;
4268;SDS011;2148;48.554;7.834;2022-11-14T13:33:49;24.67;;;15.43;;
4268;SDS011;2148;48.554;7.834;2022-11-14T13:44:34;10.27;;;8.30;;
4268;SDS011;2148;48.554;7.834;2022-11-14T13:50:10;7.97;;;7.17;;
4268;SDS011;2148;48.554;7.834;2022-11-14T13:52:40;9.33;;;6.40;;
4268;SDS011;2148;48.554;7.834;2022-11-14T13:55:15;11.87;;;7.37;;
4268;SDS011;2148;48.554;7.834;2022-11-14T14:00:47;10.53;;;7.40;;
4268;SDS011;2148;48.554;7.834;2022-11-14T14:03:35;8.87;;;6.40;;
4268;SDS011;2148;48.554;7.834;2022-11-14T14:06:18;7.70;;;6.77;;
4268;SDS011;2148;48.554;7.834;2022-11-14T14:09:09;10.43;;;6.50;;
4268;SDS011;2148;48.554;7.834;2022-11-14T14:11:46;6.07;;;5.43;;
4268;SDS011;2148;48.554;7.834;2022-11-14T14:19:50;7.20;;;5.60;;
4268;SDS011;2148;48.554;7.834;2022-11-14T14:22:57;6.70;;;4.80;;
4268;SDS011;2148;48.554;7.834;2022-11-14T14:28:49;5.83;;;4.90;;
4268;SDS011;2148;48.554;7.834;2022-11-14T14:31:20;5.27;;;4.77;;
4268;SDS011;2148;48.554;7.834;2022-11-14T14:33:47;5.40;;;4.33;;
4268;SDS011;2148;48.554;7.834;2022-11-14T14:36:15;6.50;;;4.60;;
4268;SDS011;2148;48.554;7.834;2022-11-14T14:38:41;6.57;;;4.50;;
4268;SDS011;2148;48.554;7.834;2022-11-14T14:41:07;6.37;;;4.50;;
4268;SDS011;2148;48.554;7.834;2022-11-14T14:43:33;5.10;;;4.60;;
4268;SDS011;2148;48.554;7.834;2022-11-14T14:45:59;6.73;;;4.27;;
4268;SDS011;2148;48.554;7.834;2022-11-14T14:48:25;7.03;;;4.57;;
4268;SDS011;2148;48.554;7.834;2022-11-14T14:50:56;4.73;;;4.20;;
4268;SDS011;2148;48.554;7.834;2022-11-14T14:53:26;7.00;;;4.40;;
4268;SDS011;2148;48.554;7.834;2022-11-14T14:55:59;4.80;;;3.80;;
4268;SDS011;2148;48.554;7.834;2022-11-14T14:58:40;4.87;;;4.37;;
4268;SDS011;2148;48.554;7.834;2022-11-14T15:01:11;4.40;;;3.50;;
4268;SDS011;2148;48.554;7.834;2022-11-14T15:03:39;5.83;;;4.30;;
4268;SDS011;2148;48.554;7.834;2022-11-14T15:06:17;4.57;;;4.10;;
4268;SDS011;2148;48.554;7.834;2022-11-14T15:08:53;4.47;;;4.03;;
4268;SDS011;2148;48.554;7.834;2022-11-14T15:11:20;5.87;;;4.03;;
4268;SDS011;2148;48.554;7.834;2022-11-14T15:13:46;17.07;;;4.70;;
4268;SDS011;2148;48.554;7.834;2022-11-14T15:16:15;5.03;;;3.97;;
4268;SDS011;2148;48.554;7.834;2022-11-14T15:18:40;4.97;;;3.97;;
4268;SDS011;2148;48.554;7.834;2022-11-14T15:21:09;5.80;;;3.90;;
4268;SDS011;2148;48.554;7.834;2022-11-14T15:23:37;5.27;;;4.43;;
4268;SDS011;2148;48.554;7.834;2022-11-14T15:26:04;5.53;;;3.83;;
4268;SDS011;2148;48.554;7.834;2022-11-14T15:28:35;4.97;;;4.43;;
4268;SDS011;2148;48.554;7.834;2022-11-14T15:31:01;4.57;;;4.10;;
4268;SDS011;2148;48.554;7.834;2022-11-14T15:33:32;4.40;;;4.00;;
4268;SDS011;2148;48.554;7.834;2022-11-14T15:38:31;5.67;;;3.97;;
4268;SDS011;2148;48.554;7.834;2022-11-14T15:43:48;4.93;;;4.20;;
4268;SDS011;2148;48.554;7.834;2022-11-14T15:46:36;6.00;;;4.67;;
4268;SDS011;2148;48.554;7.834;2022-11-14T15:54:03;4.50;;;4.00;;
4268;SDS011;2148;48.554;7.834;2022-11-14T15:56:29;4.17;;;3.53;;
4268;SDS011;2148;48.554;7.834;2022-11-14T15:58:54;5.37;;;4.30;;
4268;SDS011;2148;48.554;7.834;2022-11-14T16:01:23;4.40;;;3.70;;
4268;SDS011;2148;48.554;7.834;2022-11-14T16:03:49;4.60;;;3.60;;
4268;SDS011;2148;48.554;7.834;2022-11-14T16:06:15;3.50;;;3.20;;
4268;SDS011;2148;48.554;7.834;2022-11-14T16:08:41;5.97;;;4.10;;
4268;SDS011;2148;48.554;7.834;2022-11-14T16:11:06;4.67;;;4.03;;
4268;SDS011;2148;48.554;7.834;2022-11-14T16:13:31;4.67;;;3.90;;
4268;SDS011;2148;48.554;7.834;2022-11-14T16:15:56;5.40;;;4.90;;
4268;SDS011;2148;48.554;7.834;2022-11-14T16:18:22;8.37;;;5.53;;
4268;SDS011;2148;48.554;7.834;2022-11-14T16:20:47;8.90;;;5.67;;
4268;SDS011;2148;48.554;7.834;2022-11-14T16:23:12;7.77;;;6.57;;
4268;SDS011;2148;48.554;7.834;2022-11-14T16:25:38;6.37;;;5.60;;
4268;SDS011;2148;48.554;7.834;2022-11-14T16:28:03;10.50;;;6.97;;
4268;SDS011;2148;48.554;7.834;2022-11-14T16:30:28;6.23;;;4.90;;
4268;SDS011;2148;48.554;7.834;2022-11-14T16:32:54;9.90;;;6.07;;
4268;SDS011;2148;48.554;7.834;2022-11-14T16:35:22;6.63;;;5.40;;
4268;SDS011;2148;48.554;7.834;2022-11-14T16:37:49;7.03;;;6.03;;
4268;SDS011;2148;48.554;7.834;2022-11-14T16:42:43;9.07;;;5.53;;
4268;SDS011;2148;48.554;7.834;2022-11-14T16:45:08;6.30;;;5.17;;
4268;SDS011;2148;48.554;7.834;2022-11-14T16:47:34;5.50;;;5.00;;
4268;SDS011;2148;48.554;7.834;2022-11-14T16:49:59;5.13;;;4.50;;